sensor_id;sensor_type;location;lat;lon;timestamp;P1;durP1;ratioP1;P2;durP2;ratioP2
21233;SDS011;10774;42.178;26.578;2023-06-22T00:02:22;8.98;;;8.05;;
21233;SDS011;10774;42.178;26.578;2023-06-22T00:04:47;10.70;;;7.68;;
21233;SDS011;10774;42.178;26.578;2023-06-22T00:07:13;10.93;;;7.95;;
21233;SDS011;10774;42.178;26.578;2023-06-22T00:09:38;9.32;;;7.50;;
21233;SDS011;10774;42.178;26.578;2023-06-22T00:12:04;9.80;;;7.75;;
21233;SDS011;10774;42.178;26.578;2023-06-22T00:14:29;10.90;;;7.75;;
21233;SDS011;10774;42.178;26.578;2023-06-22T00:16:55;11.90;;;7.78;;
21233;SDS011;10774;42.178;26.578;2023-06-22T00:19:24;14.05;;;8.48;;
21233;SDS011;10774;42.178;26.578;2023-06-22T00:21:52;11.93;;;8.48;;
21233;SDS011;10774;42.178;26.578;2023-06-22T00:24:18;11.57;;;8.25;;
21233;SDS011;10774;42.178;26.578;2023-06-22T00:26:44;14.23;;;7.60;;
21233;SDS011;10774;42.178;26.578;2023-06-22T00:29:10;12.82;;;7.55;;
21233;SDS011;10774;42.178;26.578;2023-06-22T00:31:35;14.05;;;8.02;;
21233;SDS011;10774;42.178;26.578;2023-06-22T00:34:00;12.05;;;7.47;;
21233;SDS011;10774;42.178;26.578;2023-06-22T00:36:26;13.88;;;7.78;;
21233;SDS011;10774;42.178;26.578;2023-06-22T00:38:51;15.25;;;7.30;;
21233;SDS011;10774;42.178;26.578;2023-06-22T00:41:17;17.33;;;7.63;;
21233;SDS011;10774;42.178;26.578;2023-06-22T00:43:42;16.13;;;7.47;;
21233;SDS011;10774;42.178;26.578;2023-06-22T00:46:08;17.80;;;7.65;;
21233;SDS011;10774;42.178;26.578;2023-06-22T00:48:33;16.58;;;8.00;;
21233;SDS011;10774;42.178;26.578;2023-06-22T00:51:02;16.55;;;7.97;;
21233;SDS011;10774;42.178;26.578;2023-06-22T00:53:28;12.90;;;7.45;;
21233;SDS011;10774;42.178;26.578;2023-06-22T00:55:53;18.67;;;7.95;;
21233;SDS011;10774;42.178;26.578;2023-06-22T00:58:19;21.95;;;8.30;;
21233;SDS011;10774;42.178;26.578;2023-06-22T01:03:15;17.58;;;8.30;;
21233;SDS011;10774;42.178;26.578;2023-06-22T01:05:42;11.65;;;7.35;;
21233;SDS011;10774;42.178;26.578;2023-06-22T01:11:10;14.68;;;7.45;;
21233;SDS011;10774;42.178;26.578;2023-06-22T01:16:12;12.60;;;8.13;;
21233;SDS011;10774;42.178;26.578;2023-06-22T01:18:42;11.75;;;7.35;;
21233;SDS011;10774;42.178;26.578;2023-06-22T01:21:11;9.75;;;7.82;;
21233;SDS011;10774;42.178;26.578;2023-06-22T01:29:04;12.07;;;7.72;;
21233;SDS011;10774;42.178;26.578;2023-06-22T01:31:32;11.73;;;7.72;;
21233;SDS011;10774;42.178;26.578;2023-06-22T01:34:01;11.23;;;8.20;;
21233;SDS011;10774;42.178;26.578;2023-06-22T01:36:30;12.75;;;8.43;;
21233;SDS011;10774;42.178;26.578;2023-06-22T01:38:57;16.08;;;8.70;;
21233;SDS011;10774;42.178;26.578;2023-06-22T01:41:27;15.20;;;9.40;;
21233;SDS011;10774;42.178;26.578;2023-06-22T01:43:55;15.00;;;9.50;;
21233;SDS011;10774;42.178;26.578;2023-06-22T01:46:21;16.15;;;9.77;;
21233;SDS011;10774;42.178;26.578;2023-06-22T01:48:47;12.82;;;9.48;;
21233;SDS011;10774;42.178;26.578;2023-06-22T01:51:13;12.30;;;8.57;;
21233;SDS011;10774;42.178;26.578;2023-06-22T01:53:39;10.77;;;9.00;;
21233;SDS011;10774;42.178;26.578;2023-06-22T01:56:04;11.27;;;9.02;;
21233;SDS011;10774;42.178;26.578;2023-06-22T01:58:31;10.25;;;8.10;;
21233;SDS011;10774;42.178;26.578;2023-06-22T02:01:01;51.95;;;46.83;;
21233;SDS011;10774;42.178;26.578;2023-06-22T02:03:37;17.80;;;15.95;;
21233;SDS011;10774;42.178;26.578;2023-06-22T02:06:07;14.20;;;8.73;;
21233;SDS011;10774;42.178;26.578;2023-06-22T02:08:44;13.48;;;7.63;;
21233;SDS011;10774;42.178;26.578;2023-06-22T02:11:14;12.05;;;6.95;;
21233;SDS011;10774;42.178;26.578;2023-06-22T02:13:42;19.67;;;7.35;;
21233;SDS011;10774;42.178;26.578;2023-06-22T02:16:11;20.20;;;7.72;;
21233;SDS011;10774;42.178;26.578;2023-06-22T02:18:37;13.98;;;7.22;;
21233;SDS011;10774;42.178;26.578;2023-06-22T02:21:05;17.27;;;7.72;;
21233;SDS011;10774;42.178;26.578;2023-06-22T02:23:31;10.77;;;7.75;;
21233;SDS011;10774;42.178;26.578;2023-06-22T02:25:59;11.95;;;6.95;;
21233;SDS011;10774;42.178;26.578;2023-06-22T02:28:27;14.63;;;8.13;;
21233;SDS011;10774;42.178;26.578;2023-06-22T02:30:52;14.55;;;7.28;;
21233;SDS011;10774;42.178;26.578;2023-06-22T02:33:18;15.27;;;8.07;;
21233;SDS011;10774;42.178;26.578;2023-06-22T02:35:43;12.35;;;7.68;;
21233;SDS011;10774;42.178;26.578;2023-06-22T02:38:12;10.38;;;7.28;;
21233;SDS011;10774;42.178;26.578;2023-06-22T02:40:38;16.92;;;7.60;;
21233;SDS011;10774;42.178;26.578;2023-06-22T02:43:04;15.10;;;7.28;;
21233;SDS011;10774;42.178;26.578;2023-06-22T02:45:29;15.60;;;7.43;;
21233;SDS011;10774;42.178;26.578;2023-06-22T02:47:55;17.25;;;7.82;;
21233;SDS011;10774;42.178;26.578;2023-06-22T02:50:21;11.45;;;7.43;;
21233;SDS011;10774;42.178;26.578;2023-06-22T02:52:46;10.90;;;7.40;;
21233;SDS011;10774;42.178;26.578;2023-06-22T02:55:11;11.15;;;6.93;;
21233;SDS011;10774;42.178;26.578;2023-06-22T02:57:37;12.73;;;7.00;;
21233;SDS011;10774;42.178;26.578;2023-06-22T03:00:03;13.45;;;7.13;;
21233;SDS011;10774;42.178;26.578;2023-06-22T03:02:41;15.32;;;7.72;;
21233;SDS011;10774;42.178;26.578;2023-06-22T03:05:07;12.15;;;7.32;;
21233;SDS011;10774;42.178;26.578;2023-06-22T03:07:35;12.50;;;8.05;;
21233;SDS011;10774;42.178;26.578;2023-06-22T03:10:01;14.70;;;8.60;;
21233;SDS011;10774;42.178;26.578;2023-06-22T03:12:27;10.88;;;7.60;;
21233;SDS011;10774;42.178;26.578;2023-06-22T03:14:52;15.18;;;7.85;;
21233;SDS011;10774;42.178;26.578;2023-06-22T03:17:17;17.00;;;7.70;;
21233;SDS011;10774;42.178;26.578;2023-06-22T03:19:43;12.80;;;7.68;;
21233;SDS011;10774;42.178;26.578;2023-06-22T03:22:08;12.95;;;8.10;;
21233;SDS011;10774;42.178;26.578;2023-06-22T03:24:34;13.65;;;7.88;;
21233;SDS011;10774;42.178;26.578;2023-06-22T03:26:59;11.98;;;7.55;;
21233;SDS011;10774;42.178;26.578;2023-06-22T03:29:25;14.80;;;8.10;;
21233;SDS011;10774;42.178;26.578;2023-06-22T03:31:50;15.13;;;8.00;;
21233;SDS011;10774;42.178;26.578;2023-06-22T03:34:16;18.00;;;7.50;;
21233;SDS011;10774;42.178;26.578;2023-06-22T03:36:41;22.45;;;11.00;;
21233;SDS011;10774;42.178;26.578;2023-06-22T03:39:10;27.63;;;13.07;;
21233;SDS011;10774;42.178;26.578;2023-06-22T03:41:35;25.50;;;14.90;;
21233;SDS011;10774;42.178;26.578;2023-06-22T03:44:00;17.83;;;10.80;;
21233;SDS011;10774;42.178;26.578;2023-06-22T03:46:26;11.15;;;7.97;;
21233;SDS011;10774;42.178;26.578;2023-06-22T03:48:51;11.15;;;8.07;;
21233;SDS011;10774;42.178;26.578;2023-06-22T03:51:17;11.40;;;8.00;;
21233;SDS011;10774;42.178;26.578;2023-06-22T03:53:42;9.70;;;7.10;;
21233;SDS011;10774;42.178;26.578;2023-06-22T03:56:08;12.23;;;8.00;;
21233;SDS011;10774;42.178;26.578;2023-06-22T03:58:34;11.75;;;7.78;;
21233;SDS011;10774;42.178;26.578;2023-06-22T04:01:01;9.65;;;7.40;;
21233;SDS011;10774;42.178;26.578;2023-06-22T04:03:26;10.60;;;7.80;;
21233;SDS011;10774;42.178;26.578;2023-06-22T04:05:52;15.45;;;8.50;;
21233;SDS011;10774;42.178;26.578;2023-06-22T04:08:17;13.95;;;7.95;;
21233;SDS011;10774;42.178;26.578;2023-06-22T04:10:43;12.70;;;7.97;;
21233;SDS011;10774;42.178;26.578;2023-06-22T04:13:09;8.52;;;6.95;;
21233;SDS011;10774;42.178;26.578;2023-06-22T04:15:35;9.40;;;7.53;;
21233;SDS011;10774;42.178;26.578;2023-06-22T04:18:01;21.55;;;8.70;;
21233;SDS011;10774;42.178;26.578;2023-06-22T04:20:26;14.25;;;8.20;;
21233;SDS011;10774;42.178;26.578;2023-06-22T04:22:52;14.10;;;7.65;;
21233;SDS011;10774;42.178;26.578;2023-06-22T04:25:19;16.08;;;7.70;;
21233;SDS011;10774;42.178;26.578;2023-06-22T04:27:45;12.55;;;8.35;;
21233;SDS011;10774;42.178;26.578;2023-06-22T04:30:11;13.98;;;8.02;;
21233;SDS011;10774;42.178;26.578;2023-06-22T04:32:37;20.25;;;9.00;;
21233;SDS011;10774;42.178;26.578;2023-06-22T04:35:03;13.48;;;8.80;;
21233;SDS011;10774;42.178;26.578;2023-06-22T04:37:32;13.50;;;8.30;;
21233;SDS011;10774;42.178;26.578;2023-06-22T04:40:00;18.33;;;8.65;;
21233;SDS011;10774;42.178;26.578;2023-06-22T04:42:26;13.10;;;7.45;;
21233;SDS011;10774;42.178;26.578;2023-06-22T04:44:52;15.73;;;7.75;;
21233;SDS011;10774;42.178;26.578;2023-06-22T04:47:18;11.70;;;8.25;;
21233;SDS011;10774;42.178;26.578;2023-06-22T04:49:43;17.05;;;7.80;;
21233;SDS011;10774;42.178;26.578;2023-06-22T04:52:09;15.75;;;7.57;;
21233;SDS011;10774;42.178;26.578;2023-06-22T04:54:37;11.93;;;8.18;;
21233;SDS011;10774;42.178;26.578;2023-06-22T04:57:04;13.63;;;7.75;;
21233;SDS011;10774;42.178;26.578;2023-06-22T04:59:34;11.43;;;8.27;;
21233;SDS011;10774;42.178;26.578;2023-06-22T05:02:00;11.75;;;8.23;;
21233;SDS011;10774;42.178;26.578;2023-06-22T05:04:28;13.38;;;9.00;;
21233;SDS011;10774;42.178;26.578;2023-06-22T05:06:58;22.15;;;9.68;;
21233;SDS011;10774;42.178;26.578;2023-06-22T05:09:28;15.15;;;8.45;;
21233;SDS011;10774;42.178;26.578;2023-06-22T05:11:54;13.55;;;8.13;;
21233;SDS011;10774;42.178;26.578;2023-06-22T05:14:21;16.60;;;8.00;;
21233;SDS011;10774;42.178;26.578;2023-06-22T05:16:47;12.48;;;8.70;;
21233;SDS011;10774;42.178;26.578;2023-06-22T05:19:13;12.82;;;7.80;;
21233;SDS011;10774;42.178;26.578;2023-06-22T05:21:39;12.23;;;8.73;;
21233;SDS011;10774;42.178;26.578;2023-06-22T05:24:04;11.55;;;8.63;;
21233;SDS011;10774;42.178;26.578;2023-06-22T05:26:30;15.88;;;9.00;;
21233;SDS011;10774;42.178;26.578;2023-06-22T05:28:57;13.02;;;8.77;;
21233;SDS011;10774;42.178;26.578;2023-06-22T05:31:24;20.85;;;8.85;;
21233;SDS011;10774;42.178;26.578;2023-06-22T05:33:50;13.88;;;8.10;;
21233;SDS011;10774;42.178;26.578;2023-06-22T05:36:17;11.77;;;8.05;;
21233;SDS011;10774;42.178;26.578;2023-06-22T05:38:45;13.65;;;8.55;;
21233;SDS011;10774;42.178;26.578;2023-06-22T05:41:10;12.00;;;7.82;;
21233;SDS011;10774;42.178;26.578;2023-06-22T05:43:36;14.40;;;8.00;;
21233;SDS011;10774;42.178;26.578;2023-06-22T05:46:01;13.48;;;8.50;;
21233;SDS011;10774;42.178;26.578;2023-06-22T05:48:29;12.02;;;8.30;;
21233;SDS011;10774;42.178;26.578;2023-06-22T05:50:55;18.33;;;8.15;;
21233;SDS011;10774;42.178;26.578;2023-06-22T05:53:20;13.98;;;8.13;;
21233;SDS011;10774;42.178;26.578;2023-06-22T05:55:46;14.18;;;8.00;;
21233;SDS011;10774;42.178;26.578;2023-06-22T05:58:11;14.60;;;8.07;;
21233;SDS011;10774;42.178;26.578;2023-06-22T06:00:38;10.77;;;8.05;;
21233;SDS011;10774;42.178;26.578;2023-06-22T06:03:05;11.23;;;8.00;;
21233;SDS011;10774;42.178;26.578;2023-06-22T06:05:31;12.82;;;7.90;;
21233;SDS011;10774;42.178;26.578;2023-06-22T06:07:57;12.07;;;8.68;;
21233;SDS011;10774;42.178;26.578;2023-06-22T06:10:23;14.15;;;8.82;;
21233;SDS011;10774;42.178;26.578;2023-06-22T06:12:49;12.93;;;8.00;;
21233;SDS011;10774;42.178;26.578;2023-06-22T06:15:15;12.88;;;7.78;;
21233;SDS011;10774;42.178;26.578;2023-06-22T06:17:50;9.77;;;8.50;;
21233;SDS011;10774;42.178;26.578;2023-06-22T06:20:18;9.65;;;7.45;;
21233;SDS011;10774;42.178;26.578;2023-06-22T06:22:48;11.40;;;7.43;;
21233;SDS011;10774;42.178;26.578;2023-06-22T06:25:14;11.85;;;7.03;;
21233;SDS011;10774;42.178;26.578;2023-06-22T06:27:45;8.13;;;6.95;;
21233;SDS011;10774;42.178;26.578;2023-06-22T06:30:11;8.73;;;6.85;;
21233;SDS011;10774;42.178;26.578;2023-06-22T06:32:38;8.25;;;6.47;;
21233;SDS011;10774;42.178;26.578;2023-06-22T06:35:07;12.05;;;7.30;;
21233;SDS011;10774;42.178;26.578;2023-06-22T06:37:37;7.82;;;7.03;;
21233;SDS011;10774;42.178;26.578;2023-06-22T06:40:05;7.55;;;6.82;;
21233;SDS011;10774;42.178;26.578;2023-06-22T06:42:35;11.45;;;7.25;;
21233;SDS011;10774;42.178;26.578;2023-06-22T06:45:12;8.90;;;7.43;;
21233;SDS011;10774;42.178;26.578;2023-06-22T06:47:38;9.15;;;6.85;;
21233;SDS011;10774;42.178;26.578;2023-06-22T06:50:05;7.10;;;6.40;;
21233;SDS011;10774;42.178;26.578;2023-06-22T06:52:31;7.75;;;6.82;;
21233;SDS011;10774;42.178;26.578;2023-06-22T06:54:57;8.48;;;7.20;;
21233;SDS011;10774;42.178;26.578;2023-06-22T06:57:23;8.73;;;6.90;;
21233;SDS011;10774;42.178;26.578;2023-06-22T06:59:49;11.52;;;7.30;;
21233;SDS011;10774;42.178;26.578;2023-06-22T07:02:15;10.15;;;7.50;;
21233;SDS011;10774;42.178;26.578;2023-06-22T07:04:41;10.20;;;7.43;;
21233;SDS011;10774;42.178;26.578;2023-06-22T07:07:06;11.50;;;7.07;;
21233;SDS011;10774;42.178;26.578;2023-06-22T07:09:32;7.47;;;6.78;;
21233;SDS011;10774;42.178;26.578;2023-06-22T07:11:57;11.27;;;7.32;;
21233;SDS011;10774;42.178;26.578;2023-06-22T07:14:23;11.10;;;7.30;;
21233;SDS011;10774;42.178;26.578;2023-06-22T07:16:49;11.25;;;7.07;;
21233;SDS011;10774;42.178;26.578;2023-06-22T07:19:14;10.70;;;6.60;;
21233;SDS011;10774;42.178;26.578;2023-06-22T07:21:40;9.80;;;6.97;;
21233;SDS011;10774;42.178;26.578;2023-06-22T07:24:05;13.18;;;7.20;;
21233;SDS011;10774;42.178;26.578;2023-06-22T07:26:31;7.53;;;5.97;;
21233;SDS011;10774;42.178;26.578;2023-06-22T07:28:57;7.55;;;5.78;;
21233;SDS011;10774;42.178;26.578;2023-06-22T07:31:25;6.93;;;6.32;;
21233;SDS011;10774;42.178;26.578;2023-06-22T07:33:51;7.72;;;6.07;;
21233;SDS011;10774;42.178;26.578;2023-06-22T07:36:17;15.60;;;6.60;;
21233;SDS011;10774;42.178;26.578;2023-06-22T07:38:43;8.18;;;5.90;;
21233;SDS011;10774;42.178;26.578;2023-06-22T07:41:08;13.30;;;5.88;;
21233;SDS011;10774;42.178;26.578;2023-06-22T07:43:33;6.85;;;5.50;;
21233;SDS011;10774;42.178;26.578;2023-06-22T07:46:02;7.22;;;5.88;;
21233;SDS011;10774;42.178;26.578;2023-06-22T07:48:28;7.38;;;5.75;;
21233;SDS011;10774;42.178;26.578;2023-06-22T07:50:54;12.05;;;5.85;;
21233;SDS011;10774;42.178;26.578;2023-06-22T07:53:20;8.82;;;6.22;;
21233;SDS011;10774;42.178;26.578;2023-06-22T07:55:46;6.97;;;5.18;;
21233;SDS011;10774;42.178;26.578;2023-06-22T07:58:12;6.50;;;5.30;;
21233;SDS011;10774;42.178;26.578;2023-06-22T08:00:37;8.48;;;6.25;;
21233;SDS011;10774;42.178;26.578;2023-06-22T08:03:03;7.70;;;5.32;;
21233;SDS011;10774;42.178;26.578;2023-06-22T08:05:30;6.38;;;5.30;;
21233;SDS011;10774;42.178;26.578;2023-06-22T08:07:56;8.05;;;5.45;;
21233;SDS011;10774;42.178;26.578;2023-06-22T08:10:21;7.05;;;5.25;;
21233;SDS011;10774;42.178;26.578;2023-06-22T08:12:47;9.40;;;5.20;;
21233;SDS011;10774;42.178;26.578;2023-06-22T08:15:12;7.95;;;4.90;;
21233;SDS011;10774;42.178;26.578;2023-06-22T08:17:38;5.97;;;5.47;;
21233;SDS011;10774;42.178;26.578;2023-06-22T08:20:04;6.85;;;5.20;;
21233;SDS011;10774;42.178;26.578;2023-06-22T08:22:40;5.70;;;5.05;;
21233;SDS011;10774;42.178;26.578;2023-06-22T08:25:07;6.60;;;5.38;;
21233;SDS011;10774;42.178;26.578;2023-06-22T08:27:33;6.93;;;5.00;;
21233;SDS011;10774;42.178;26.578;2023-06-22T08:29:58;5.60;;;4.53;;
21233;SDS011;10774;42.178;26.578;2023-06-22T08:32:25;5.53;;;4.95;;
21233;SDS011;10774;42.178;26.578;2023-06-22T08:34:55;6.32;;;4.50;;
21233;SDS011;10774;42.178;26.578;2023-06-22T08:37:22;9.93;;;4.68;;
21233;SDS011;10774;42.178;26.578;2023-06-22T08:39:55;7.72;;;4.40;;
21233;SDS011;10774;42.178;26.578;2023-06-22T08:42:24;7.38;;;4.25;;
21233;SDS011;10774;42.178;26.578;2023-06-22T08:44:50;5.97;;;4.35;;
21233;SDS011;10774;42.178;26.578;2023-06-22T08:47:16;6.30;;;4.10;;
21233;SDS011;10774;42.178;26.578;2023-06-22T08:49:41;8.25;;;4.65;;
21233;SDS011;10774;42.178;26.578;2023-06-22T08:52:07;4.90;;;4.15;;
21233;SDS011;10774;42.178;26.578;2023-06-22T08:54:33;7.78;;;4.05;;
21233;SDS011;10774;42.178;26.578;2023-06-22T08:57:00;5.35;;;3.70;;
21233;SDS011;10774;42.178;26.578;2023-06-22T08:59:25;6.60;;;4.10;;
21233;SDS011;10774;42.178;26.578;2023-06-22T09:01:51;7.97;;;4.15;;
21233;SDS011;10774;42.178;26.578;2023-06-22T09:04:16;7.13;;;4.70;;
21233;SDS011;10774;42.178;26.578;2023-06-22T09:06:42;4.68;;;3.95;;
21233;SDS011;10774;42.178;26.578;2023-06-22T09:09:12;6.25;;;4.20;;
21233;SDS011;10774;42.178;26.578;2023-06-22T09:11:38;6.03;;;4.15;;
21233;SDS011;10774;42.178;26.578;2023-06-22T09:14:03;5.85;;;3.92;;
21233;SDS011;10774;42.178;26.578;2023-06-22T09:16:29;5.75;;;4.07;;
21233;SDS011;10774;42.178;26.578;2023-06-22T09:18:55;8.93;;;4.25;;
21233;SDS011;10774;42.178;26.578;2023-06-22T09:21:20;6.22;;;3.78;;
21233;SDS011;10774;42.178;26.578;2023-06-22T09:23:46;5.03;;;4.00;;
21233;SDS011;10774;42.178;26.578;2023-06-22T09:26:15;7.85;;;4.30;;
21233;SDS011;10774;42.178;26.578;2023-06-22T09:32:20;4.95;;;3.88;;
21233;SDS011;10774;42.178;26.578;2023-06-22T09:34:46;4.53;;;3.90;;
21233;SDS011;10774;42.178;26.578;2023-06-22T09:37:11;3.65;;;3.35;;
21233;SDS011;10774;42.178;26.578;2023-06-22T09:39:37;6.63;;;3.92;;
21233;SDS011;10774;42.178;26.578;2023-06-22T09:42:02;4.32;;;3.92;;
21233;SDS011;10774;42.178;26.578;2023-06-22T09:44:28;4.10;;;3.63;;
21233;SDS011;10774;42.178;26.578;2023-06-22T09:46:53;4.10;;;3.80;;
21233;SDS011;10774;42.178;26.578;2023-06-22T09:49:19;4.40;;;3.75;;
21233;SDS011;10774;42.178;26.578;2023-06-22T09:51:44;4.82;;;3.72;;
21233;SDS011;10774;42.178;26.578;2023-06-22T09:54:10;4.55;;;4.15;;
21233;SDS011;10774;42.178;26.578;2023-06-22T09:56:35;4.88;;;3.85;;
21233;SDS011;10774;42.178;26.578;2023-06-22T09:59:02;4.53;;;4.10;;
21233;SDS011;10774;42.178;26.578;2023-06-22T10:01:28;4.80;;;3.80;;
21233;SDS011;10774;42.178;26.578;2023-06-22T10:03:53;4.50;;;4.10;;
21233;SDS011;10774;42.178;26.578;2023-06-22T10:06:21;4.15;;;3.78;;
21233;SDS011;10774;42.178;26.578;2023-06-22T10:08:47;4.43;;;4.03;;
21233;SDS011;10774;42.178;26.578;2023-06-22T10:11:13;5.13;;;3.67;;
21233;SDS011;10774;42.178;26.578;2023-06-22T10:13:39;4.53;;;4.13;;
21233;SDS011;10774;42.178;26.578;2023-06-22T10:16:04;8.43;;;4.30;;
21233;SDS011;10774;42.178;26.578;2023-06-22T10:18:30;7.75;;;4.43;;
21233;SDS011;10774;42.178;26.578;2023-06-22T10:20:55;4.20;;;3.83;;
21233;SDS011;10774;42.178;26.578;2023-06-22T10:23:21;4.30;;;3.90;;
21233;SDS011;10774;42.178;26.578;2023-06-22T10:25:47;5.38;;;4.00;;
21233;SDS011;10774;42.178;26.578;2023-06-22T10:28:13;4.75;;;3.90;;
21233;SDS011;10774;42.178;26.578;2023-06-22T10:30:39;5.47;;;3.97;;
21233;SDS011;10774;42.178;26.578;2023-06-22T10:33:08;6.03;;;4.15;;
21233;SDS011;10774;42.178;26.578;2023-06-22T10:35:35;7.13;;;4.03;;
21233;SDS011;10774;42.178;26.578;2023-06-22T10:38:02;4.65;;;3.88;;
21233;SDS011;10774;42.178;26.578;2023-06-22T10:40:28;7.93;;;4.40;;
21233;SDS011;10774;42.178;26.578;2023-06-22T10:42:53;6.18;;;3.95;;
21233;SDS011;10774;42.178;26.578;2023-06-22T10:45:19;6.20;;;4.15;;
21233;SDS011;10774;42.178;26.578;2023-06-22T10:47:44;4.47;;;4.07;;
21233;SDS011;10774;42.178;26.578;2023-06-22T10:50:10;4.82;;;4.03;;
21233;SDS011;10774;42.178;26.578;2023-06-22T10:52:36;4.47;;;4.07;;
21233;SDS011;10774;42.178;26.578;2023-06-22T10:55:02;4.68;;;4.20;;
21233;SDS011;10774;42.178;26.578;2023-06-22T10:57:27;4.72;;;4.22;;
21233;SDS011;10774;42.178;26.578;2023-06-22T10:59:53;5.32;;;4.00;;
21233;SDS011;10774;42.178;26.578;2023-06-22T11:02:18;6.10;;;4.30;;
21233;SDS011;10774;42.178;26.578;2023-06-22T11:04:43;6.40;;;3.47;;
21233;SDS011;10774;42.178;26.578;2023-06-22T11:07:09;9.55;;;4.97;;
21233;SDS011;10774;42.178;26.578;2023-06-22T11:09:35;5.10;;;4.03;;
21233;SDS011;10774;42.178;26.578;2023-06-22T11:12:01;4.28;;;3.88;;
21233;SDS011;10774;42.178;26.578;2023-06-22T11:14:26;7.15;;;3.80;;
21233;SDS011;10774;42.178;26.578;2023-06-22T11:16:51;5.13;;;4.40;;
21233;SDS011;10774;42.178;26.578;2023-06-22T11:19:17;6.22;;;4.97;;
21233;SDS011;10774;42.178;26.578;2023-06-22T11:21:43;6.22;;;4.28;;
21233;SDS011;10774;42.178;26.578;2023-06-22T11:24:08;4.10;;;3.70;;
21233;SDS011;10774;42.178;26.578;2023-06-22T11:26:34;5.63;;;3.80;;
21233;SDS011;10774;42.178;26.578;2023-06-22T11:29:00;7.95;;;3.97;;
21233;SDS011;10774;42.178;26.578;2023-06-22T11:31:25;5.03;;;3.80;;
21233;SDS011;10774;42.178;26.578;2023-06-22T11:33:51;4.22;;;3.83;;
21233;SDS011;10774;42.178;26.578;2023-06-22T11:36:16;3.85;;;3.45;;
21233;SDS011;10774;42.178;26.578;2023-06-22T11:38:42;4.30;;;3.90;;
21233;SDS011;10774;42.178;26.578;2023-06-22T11:41:09;4.57;;;3.95;;
21233;SDS011;10774;42.178;26.578;2023-06-22T11:43:35;4.45;;;3.60;;
21233;SDS011;10774;42.178;26.578;2023-06-22T11:46:05;4.35;;;3.90;;
21233;SDS011;10774;42.178;26.578;2023-06-22T11:48:31;4.95;;;3.75;;
21233;SDS011;10774;42.178;26.578;2023-06-22T11:50:56;4.63;;;3.50;;
21233;SDS011;10774;42.178;26.578;2023-06-22T11:53:23;6.20;;;3.67;;
21233;SDS011;10774;42.178;26.578;2023-06-22T11:55:50;4.75;;;3.92;;
21233;SDS011;10774;42.178;26.578;2023-06-22T11:58:15;7.38;;;3.67;;
21233;SDS011;10774;42.178;26.578;2023-06-22T12:00:41;4.30;;;3.33;;
21233;SDS011;10774;42.178;26.578;2023-06-22T12:03:07;4.10;;;3.53;;
21233;SDS011;10774;42.178;26.578;2023-06-22T12:05:33;3.72;;;3.42;;
21233;SDS011;10774;42.178;26.578;2023-06-22T12:07:58;4.63;;;3.47;;
21233;SDS011;10774;42.178;26.578;2023-06-22T12:10:24;6.85;;;3.08;;
21233;SDS011;10774;42.178;26.578;2023-06-22T12:12:50;3.55;;;3.25;;
21233;SDS011;10774;42.178;26.578;2023-06-22T12:15:16;3.70;;;3.40;;
21233;SDS011;10774;42.178;26.578;2023-06-22T12:17:42;4.05;;;3.22;;
21233;SDS011;10774;42.178;26.578;2023-06-22T12:20:07;4.05;;;3.63;;
21233;SDS011;10774;42.178;26.578;2023-06-22T12:22:34;5.20;;;2.97;;
21233;SDS011;10774;42.178;26.578;2023-06-22T12:24:59;4.75;;;3.70;;
21233;SDS011;10774;42.178;26.578;2023-06-22T12:27:25;5.20;;;3.42;;
21233;SDS011;10774;42.178;26.578;2023-06-22T12:29:51;5.25;;;3.00;;
21233;SDS011;10774;42.178;26.578;2023-06-22T12:32:16;6.72;;;3.33;;
21233;SDS011;10774;42.178;26.578;2023-06-22T12:34:43;8.07;;;3.50;;
21233;SDS011;10774;42.178;26.578;2023-06-22T12:37:08;7.75;;;3.25;;
21233;SDS011;10774;42.178;26.578;2023-06-22T12:39:34;4.07;;;3.58;;
21233;SDS011;10774;42.178;26.578;2023-06-22T12:41:59;3.67;;;3.33;;
21233;SDS011;10774;42.178;26.578;2023-06-22T12:44:24;3.50;;;3.20;;
21233;SDS011;10774;42.178;26.578;2023-06-22T12:46:50;4.18;;;3.50;;
21233;SDS011;10774;42.178;26.578;2023-06-22T12:49:15;4.18;;;3.10;;
21233;SDS011;10774;42.178;26.578;2023-06-22T12:51:41;5.20;;;3.38;;
21233;SDS011;10774;42.178;26.578;2023-06-22T12:54:08;3.28;;;2.97;;
21233;SDS011;10774;42.178;26.578;2023-06-22T12:56:33;3.25;;;2.95;;
21233;SDS011;10774;42.178;26.578;2023-06-22T12:58:59;3.50;;;3.20;;
21233;SDS011;10774;42.178;26.578;2023-06-22T13:01:26;5.13;;;3.55;;
21233;SDS011;10774;42.178;26.578;2023-06-22T13:03:52;4.32;;;3.30;;
21233;SDS011;10774;42.178;26.578;2023-06-22T13:06:18;3.40;;;3.10;;
21233;SDS011;10774;42.178;26.578;2023-06-22T13:08:44;4.75;;;3.55;;
21233;SDS011;10774;42.178;26.578;2023-06-22T13:11:09;4.32;;;3.80;;
21233;SDS011;10774;42.178;26.578;2023-06-22T13:13:34;10.07;;;4.20;;
21233;SDS011;10774;42.178;26.578;2023-06-22T13:16:00;6.97;;;3.50;;
21233;SDS011;10774;42.178;26.578;2023-06-22T13:18:25;5.95;;;3.83;;
21233;SDS011;10774;42.178;26.578;2023-06-22T13:20:51;6.97;;;3.65;;
21233;SDS011;10774;42.178;26.578;2023-06-22T13:23:18;4.20;;;3.50;;
21233;SDS011;10774;42.178;26.578;2023-06-22T13:25:43;3.67;;;3.38;;
21233;SDS011;10774;42.178;26.578;2023-06-22T13:28:08;9.25;;;3.53;;
21233;SDS011;10774;42.178;26.578;2023-06-22T13:30:35;7.20;;;3.75;;
21233;SDS011;10774;42.178;26.578;2023-06-22T13:33:00;5.68;;;3.50;;
21233;SDS011;10774;42.178;26.578;2023-06-22T13:35:26;9.23;;;3.63;;
21233;SDS011;10774;42.178;26.578;2023-06-22T13:37:51;8.48;;;3.67;;
21233;SDS011;10774;42.178;26.578;2023-06-22T13:40:17;3.80;;;3.28;;
21233;SDS011;10774;42.178;26.578;2023-06-22T13:42:42;3.67;;;3.33;;
21233;SDS011;10774;42.178;26.578;2023-06-22T13:45:08;3.95;;;3.38;;
21233;SDS011;10774;42.178;26.578;2023-06-22T13:47:33;4.10;;;3.22;;
21233;SDS011;10774;42.178;26.578;2023-06-22T13:49:59;6.20;;;3.40;;
21233;SDS011;10774;42.178;26.578;2023-06-22T13:52:24;4.00;;;3.67;;
21233;SDS011;10774;42.178;26.578;2023-06-22T13:54:50;3.97;;;3.60;;
21233;SDS011;10774;42.178;26.578;2023-06-22T13:57:15;4.55;;;3.90;;
21233;SDS011;10774;42.178;26.578;2023-06-22T13:59:41;6.25;;;3.70;;
21233;SDS011;10774;42.178;26.578;2023-06-22T14:02:06;5.30;;;3.53;;
21233;SDS011;10774;42.178;26.578;2023-06-22T14:04:32;7.15;;;3.30;;
21233;SDS011;10774;42.178;26.578;2023-06-22T14:06:57;9.07;;;3.58;;
21233;SDS011;10774;42.178;26.578;2023-06-22T14:09:23;5.07;;;3.42;;
21233;SDS011;10774;42.178;26.578;2023-06-22T14:11:49;9.32;;;3.90;;
21233;SDS011;10774;42.178;26.578;2023-06-22T14:14:14;7.22;;;3.38;;
21233;SDS011;10774;42.178;26.578;2023-06-22T14:16:40;7.60;;;3.78;;
21233;SDS011;10774;42.178;26.578;2023-06-22T14:19:05;4.97;;;3.63;;
21233;SDS011;10774;42.178;26.578;2023-06-22T14:21:30;8.60;;;3.72;;
21233;SDS011;10774;42.178;26.578;2023-06-22T14:23:56;5.85;;;3.35;;
21233;SDS011;10774;42.178;26.578;2023-06-22T14:26:21;6.18;;;3.30;;
21233;SDS011;10774;42.178;26.578;2023-06-22T14:28:47;4.93;;;3.33;;
21233;SDS011;10774;42.178;26.578;2023-06-22T14:31:15;8.70;;;3.45;;
21233;SDS011;10774;42.178;26.578;2023-06-22T14:33:43;6.60;;;4.05;;
21233;SDS011;10774;42.178;26.578;2023-06-22T14:36:10;5.45;;;3.55;;
21233;SDS011;10774;42.178;26.578;2023-06-22T14:38:36;7.63;;;3.85;;
21233;SDS011;10774;42.178;26.578;2023-06-22T14:41:01;5.40;;;3.53;;